Time;durP1;ratioP1;P1;durP2;ratioP2;P2;SDS_P1;SDS_P2;PMS_P1;PMS_P2;Temp;Humidity;BMP_temperature;BMP_pressure;BME280_temperature;BME280_humidity;BME280_pressure;Samples;Min_cycle;Max_cycle;Signal;HPM_P1;HPM_P2
2022/09/07 00:00:40;;;;;;;5.88;3.03;;;;;;;;;;5060233;28;20025;-76
2022/09/07 00:03:07;;;;;;;10.15;4.60;;;;;;;;;;5076742;28;20024;-75
2022/09/07 00:05:33;;;;;;;9.82;3.63;;;;;;;;;;5057925;28;20040;-76
2022/09/07 00:08:00;;;;;;;9.63;3.40;;;;;;;;;;5081144;28;20051;-75
2022/09/07 00:10:26;;;;;;;10.95;3.38;;;;;;;;;;5069571;28;20032;-76
2022/09/07 00:12:52;;;;;;;7.68;3.20;;;;;;;;;;5068679;28;20471;-75
2022/09/07 00:15:18;;;;;;;14.55;3.53;;;;;;;;;;5068068;28;20128;-75
2022/09/07 00:17:45;;;;;;;13.30;2.97;;;;;;;;;;5065292;28;20054;-75
2022/09/07 00:20:11;;;;;;;10.63;3.80;;;;;;;;;;5064380;28;20025;-75
2022/09/07 00:22:37;;;;;;;10.85;3.70;;;;;;;;;;5065053;28;20024;-76
2022/09/07 00:25:04;;;;;;;9.68;3.35;;;;;;;;;;5055368;28;20028;-75
2022/09/07 00:27:30;;;;;;;11.85;4.10;;;;;;;;;;5066545;28;20024;-75
2022/09/07 00:29:56;;;;;;;9.82;3.75;;;;;;;;;;5069020;28;20099;-75
2022/09/07 00:32:22;;;;;;;11.93;4.05;;;;;;;;;;5068000;28;20107;-76
2022/09/07 00:34:49;;;;;;;11.50;3.92;;;;;;;;;;5068667;28;20020;-76
2022/09/07 00:37:16;;;;;;;11.30;3.63;;;;;;;;;;5065239;28;20021;-75
2022/09/07 00:39:42;;;;;;;8.10;3.67;;;;;;;;;;5070619;28;20028;-76
2022/09/07 00:42:08;;;;;;;13.65;3.97;;;;;;;;;;5061560;28;20111;-75
2022/09/07 00:44:43;;;;;;;7.28;3.95;;;;;;;;;;5060119;28;20021;-76
2022/09/07 00:47:12;;;;;;;11.93;3.67;;;;;;;;;;5069615;28;20529;-75
2022/09/07 00:49:39;;;;;;;14.98;3.88;;;;;;;;;;5063772;28;20031;-75
2022/09/07 00:52:07;;;;;;;15.30;4.35;;;;;;;;;;5069635;28;20056;-76
2022/09/07 00:54:38;;;;;;;13.45;3.80;;;;;;;;;;5081773;28;20017;-75
2022/09/07 00:57:05;;;;;;;13.75;4.38;;;;;;;;;;5067056;28;20773;-75
2022/09/07 00:59:34;;;;;;;14.45;3.85;;;;;;;;;;5060144;28;20525;-75
2022/09/07 01:02:00;;;;;;;16.85;4.05;;;;;;;;;;5064248;28;20043;-75
2022/09/07 01:04:27;;;;;;;14.70;3.83;;;;;;;;;;5059503;28;20090;-75
2022/09/07 01:06:54;;;;;;;11.63;3.40;;;;;;;;;;5068965;28;20043;-75
2022/09/07 01:09:22;;;;;;;9.60;5.00;;;;;;;;;;5057514;28;20424;-75
2022/09/07 01:11:49;;;;;;;12.30;4.40;;;;;;;;;;5062190;28;20501;-75
2022/09/07 01:14:17;;;;;;;12.13;4.60;;;;;;;;;;5064107;28;20052;-74
2022/09/07 01:16:43;;;;;;;10.95;3.67;;;;;;;;;;5067351;28;20081;-75
2022/09/07 01:19:28;;;;;;;13.05;3.60;;;;;;;;;;5058130;28;20052;-75
2022/09/07 01:22:12;;;;;;;16.97;4.27;;;;;;;;;;5066119;28;20290;-75
2022/09/07 01:24:54;;;;;;;11.73;3.88;;;;;;;;;;5063122;28;20366;-75
2022/09/07 01:27:23;;;;;;;12.48;4.80;;;;;;;;;;5066619;28;20025;-76
2022/09/07 01:29:52;;;;;;;13.18;4.55;;;;;;;;;;5066658;28;20032;-75
2022/09/07 01:32:30;;;;;;;8.30;3.67;;;;;;;;;;5064892;28;20021;-76
2022/09/07 01:34:56;;;;;;;10.20;3.30;;;;;;;;;;5061952;28;20029;-75
2022/09/07 01:37:29;;;;;;;7.93;3.20;;;;;;;;;;5083475;28;20032;-77
2022/09/07 01:39:55;;;;;;;8.82;3.17;;;;;;;;;;5062992;28;20149;-77
2022/09/07 01:42:24;;;;;;;9.65;3.22;;;;;;;;;;5063194;28;20358;-75
2022/09/07 01:44:59;;;;;;;8.32;2.70;;;;;;;;;;5059147;28;20032;-75
2022/09/07 01:47:30;;;;;;;7.38;3.63;;;;;;;;;;5058151;28;20025;-75
2022/09/07 01:50:01;;;;;;;10.77;4.05;;;;;;;;;;5064079;28;20031;-75
2022/09/07 01:52:33;;;;;;;12.65;3.05;;;;;;;;;;5061063;28;20115;-74
2022/09/07 01:55:19;;;;;;;8.35;2.75;;;;;;;;;;5075561;28;20021;-75
2022/09/07 01:57:49;;;;;;;7.38;2.78;;;;;;;;;;5043097;28;21273;-75
2022/09/07 02:00:16;;;;;;;8.02;2.80;;;;;;;;;;5071160;28;20029;-77
2022/09/07 02:02:46;;;;;;;8.77;3.35;;;;;;;;;;5062587;28;20096;-77
2022/09/07 02:05:18;;;;;;;5.93;2.30;;;;;;;;;;5067105;28;20036;-75
2022/09/07 02:07:44;;;;;;;8.63;2.80;;;;;;;;;;5056466;28;20029;-75
2022/09/07 02:10:13;;;;;;;6.03;3.20;;;;;;;;;;5065748;28;20040;-76
2022/09/07 02:12:42;;;;;;;9.75;3.42;;;;;;;;;;5066788;28;20029;-77
2022/09/07 02:15:13;;;;;;;10.00;2.97;;;;;;;;;;5066399;28;20047;-76
2022/09/07 02:17:42;;;;;;;9.80;3.63;;;;;;;;;;5066001;28;20120;-76
2022/09/07 02:20:11;;;;;;;8.27;3.30;;;;;;;;;;5062501;28;20055;-76
2022/09/07 02:22:39;;;;;;;8.07;3.08;;;;;;;;;;5063775;28;20071;-76
2022/09/07 02:25:07;;;;;;;8.93;2.70;;;;;;;;;;5066955;28;20028;-77
2022/09/07 02:27:35;;;;;;;5.82;3.20;;;;;;;;;;5065535;28;20082;-75
2022/09/07 02:30:01;;;;;;;7.93;3.13;;;;;;;;;;5066785;28;20070;-74
2022/09/07 02:32:27;;;;;;;8.27;3.85;;;;;;;;;;5062493;28;20040;-77
2022/09/07 02:34:53;;;;;;;7.32;2.75;;;;;;;;;;5068816;28;20538;-76
2022/09/07 02:37:20;;;;;;;10.20;3.35;;;;;;;;;;5065643;28;20436;-75
2022/09/07 02:39:47;;;;;;;9.95;3.45;;;;;;;;;;5063453;28;20111;-76
2022/09/07 02:42:13;;;;;;;14.52;4.60;;;;;;;;;;5064410;28;20469;-75
2022/09/07 02:44:41;;;;;;;8.30;3.33;;;;;;;;;;5066164;28;20138;-76
2022/09/07 02:47:16;;;;;;;9.35;3.53;;;;;;;;;;5061976;28;20021;-76
2022/09/07 02:50:01;;;;;;;8.10;3.75;;;;;;;;;;5058125;28;20151;-77
2022/09/07 02:52:30;;;;;;;6.75;2.67;;;;;;;;;;5073363;28;20040;-75
2022/09/07 02:55:09;;;;;;;9.20;3.38;;;;;;;;;;5063196;28;20116;-76
2022/09/07 02:57:42;;;;;;;7.30;3.03;;;;;;;;;;5081163;28;20133;-76
2022/09/07 03:00:11;;;;;;;6.80;3.33;;;;;;;;;;5066306;28;20424;-76
2022/09/07 03:02:37;;;;;;;7.60;2.70;;;;;;;;;;5063968;28;20029;-76
2022/09/07 03:05:12;;;;;;;4.35;2.50;;;;;;;;;;5069075;28;20413;-76
2022/09/07 03:07:47;;;;;;;4.32;2.50;;;;;;;;;;5059761;28;20063;-76
2022/09/07 03:10:13;;;;;;;;;;;;;;;;;;5070825;28;20024;-75
2022/09/07 03:12:46;;;;;;;3.78;2.60;;;;;;;;;;5062810;28;20027;-76
2022/09/07 03:15:13;;;;;;;8.88;2.65;;;;;;;;;;5070991;28;20080;-75
2022/09/07 03:17:40;;;;;;;5.43;2.40;;;;;;;;;;5070553;28;20369;-76
2022/09/07 03:20:07;;;;;;;5.63;2.40;;;;;;;;;;5070748;28;20024;-75
2022/09/07 03:22:33;;;;;;;8.60;3.10;;;;;;;;;;5064743;28;20021;-75
2022/09/07 03:25:00;;;;;;;4.93;2.70;;;;;;;;;;5062150;28;20028;-75
2022/09/07 03:27:26;;;;;;;10.77;3.95;;;;;;;;;;5070026;28;20016;-75
2022/09/07 03:29:52;;;;;;;6.15;2.80;;;;;;;;;;5067276;28;20139;-75
2022/09/07 03:32:19;;;;;;;7.90;2.95;;;;;;;;;;5069971;28;20373;-76
2022/09/07 03:34:47;;;;;;;5.90;3.13;;;;;;;;;;5068578;28;20119;-75
2022/09/07 03:37:13;;;;;;;8.45;2.30;;;;;;;;;;5077951;28;20017;-75
2022/09/07 03:39:39;;;;;;;6.57;2.75;;;;;;;;;;5076800;28;20124;-76
2022/09/07 03:42:05;;;;;;;6.97;2.83;;;;;;;;;;5065611;28;20021;-78
2022/09/07 03:44:31;;;;;;;4.07;2.50;;;;;;;;;;5067310;28;20017;-75
2022/09/07 03:46:57;;;;;;;6.88;3.05;;;;;;;;;;5064946;28;20017;-75
2022/09/07 03:49:23;;;;;;;4.95;2.20;;;;;;;;;;5067300;28;20021;-75
2022/09/07 03:51:50;;;;;;;3.72;2.60;;;;;;;;;;5066892;28;20088;-75
2022/09/07 03:54:16;;;;;;;8.98;2.70;;;;;;;;;;5071712;28;20082;-78
2022/09/07 03:56:42;;;;;;;4.32;2.20;;;;;;;;;;5069788;28;20119;-76
2022/09/07 03:59:08;;;;;;;11.10;4.03;;;;;;;;;;5065747;28;20017;-76
2022/09/07 04:01:34;;;;;;;9.60;2.65;;;;;;;;;;5068460;28;20083;-76
2022/09/07 04:04:03;;;;;;;7.32;2.80;;;;;;;;;;5067983;28;20029;-77
2022/09/07 04:06:30;;;;;;;7.70;2.78;;;;;;;;;;5066141;28;20465;-76
2022/09/07 04:08:56;;;;;;;9.82;2.88;;;;;;;;;;5064358;28;20025;-76
2022/09/07 04:11:23;;;;;;;5.22;2.33;;;;;;;;;;5066360;28;20027;-76
2022/09/07 04:13:49;;;;;;;5.85;2.30;;;;;;;;;;5065233;28;20032;-77
2022/09/07 04:16:20;;;;;;;6.50;2.30;;;;;;;;;;5082976;28;20043;-76
2022/09/07 04:18:48;;;;;;;8.00;2.58;;;;;;;;;;5069790;28;20024;-75
2022/09/07 04:21:14;;;;;;;5.72;2.15;;;;;;;;;;5069465;28;20120;-76
2022/09/07 04:23:41;;;;;;;5.32;2.42;;;;;;;;;;5067661;28;20661;-76
2022/09/07 04:26:15;;;;;;;4.15;2.55;;;;;;;;;;5068920;28;20038;-75
2022/09/07 04:28:41;;;;;;;8.55;2.30;;;;;;;;;;5066964;28;20044;-76
2022/09/07 04:31:08;;;;;;;6.03;1.88;;;;;;;;;;5063831;28;20115;-75
2022/09/07 04:33:34;;;;;;;8.65;2.40;;;;;;;;;;5064204;28;20043;-76
2022/09/07 04:36:01;;;;;;;6.05;2.63;;;;;;;;;;5067057;28;20469;-75
2022/09/07 04:38:27;;;;;;;6.90;2.30;;;;;;;;;;5065055;28;20117;-76
2022/09/07 04:41:08;;;;;;;7.03;3.05;;;;;;;;;;5059938;28;20032;-76
2022/09/07 04:43:35;;;;;;;6.05;2.20;;;;;;;;;;5061001;28;20036;-76
2022/09/07 04:46:05;;;;;;;8.32;2.50;;;;;;;;;;5072564;28;20431;-76
2022/09/07 04:48:32;;;;;;;7.68;2.28;;;;;;;;;;5065107;28;20028;-76
2022/09/07 04:51:05;;;;;;;5.50;2.85;;;;;;;;;;5065676;28;20168;-76
2022/09/07 04:53:32;;;;;;;3.95;2.80;;;;;;;;;;5063853;28;20516;-77
2022/09/07 04:55:58;;;;;;;6.40;2.60;;;;;;;;;;5076541;28;20032;-75
2022/09/07 04:58:24;;;;;;;5.65;2.92;;;;;;;;;;5067695;28;20051;-76
2022/09/07 05:00:51;;;;;;;5.25;2.63;;;;;;;;;;5058018;28;20134;-76
2022/09/07 05:03:17;;;;;;;7.97;2.35;;;;;;;;;;5063472;28;20028;-76
2022/09/07 05:05:43;;;;;;;12.38;3.15;;;;;;;;;;5061871;28;20042;-78
2022/09/07 05:08:10;;;;;;;4.13;2.50;;;;;;;;;;5064443;28;20028;-75
2022/09/07 05:10:36;;;;;;;7.82;2.40;;;;;;;;;;5063000;28;20044;-76
2022/09/07 05:13:02;;;;;;;4.13;2.20;;;;;;;;;;5067981;28;20078;-76
2022/09/07 05:15:29;;;;;;;4.47;2.50;;;;;;;;;;5064074;28;20043;-76
2022/09/07 05:17:55;;;;;;;7.30;2.50;;;;;;;;;;5063590;28;20124;-76
2022/09/07 05:20:22;;;;;;;9.45;2.85;;;;;;;;;;5066420;28;20029;-75
2022/09/07 05:22:48;;;;;;;7.63;3.00;;;;;;;;;;5066628;28;20025;-76
2022/09/07 05:25:14;;;;;;;8.68;2.75;;;;;;;;;;5063695;28;20028;-76
2022/09/07 05:27:40;;;;;;;6.88;3.47;;;;;;;;;;5064986;28;20029;-75
2022/09/07 05:30:07;;;;;;;7.95;3.22;;;;;;;;;;5064901;28;20575;-76
2022/09/07 05:32:33;;;;;;;6.93;2.72;;;;;;;;;;5066758;28;20078;-75
2022/09/07 05:34:59;;;;;;;6.32;2.72;;;;;;;;;;5060608;28;20553;-76
2022/09/07 05:37:25;;;;;;;7.90;3.08;;;;;;;;;;5066308;28;20028;-76
2022/09/07 05:39:55;;;;;;;4.72;2.40;;;;;;;;;;5065210;28;20382;-77
2022/09/07 05:42:21;;;;;;;7.70;2.58;;;;;;;;;;5066897;28;20020;-76
2022/09/07 05:44:47;;;;;;;3.85;2.20;;;;;;;;;;5063824;28;20686;-75
2022/09/07 05:47:14;;;;;;;5.03;2.85;;;;;;;;;;5062716;28;20029;-77
2022/09/07 05:49:40;;;;;;;9.70;3.53;;;;;;;;;;5065516;28;20038;-77
2022/09/07 05:52:06;;;;;;;7.22;2.60;;;;;;;;;;5067296;28;20043;-77
2022/09/07 05:54:32;;;;;;;6.88;2.33;;;;;;;;;;5061454;28;20908;-76
2022/09/07 05:56:58;;;;;;;6.35;2.95;;;;;;;;;;5061541;28;20084;-76
2022/09/07 05:59:24;;;;;;;3.88;2.15;;;;;;;;;;5064312;28;20028;-77
2022/09/07 06:01:50;;;;;;;4.63;2.40;;;;;;;;;;5080611;28;20385;-77
2022/09/07 06:04:17;;;;;;;14.23;2.88;;;;;;;;;;5066618;28;20028;-78
2022/09/07 06:06:43;;;;;;;7.22;2.58;;;;;;;;;;5076094;28;20028;-78
2022/09/07 06:09:11;;;;;;;7.20;2.85;;;;;;;;;;5063864;28;20036;-76
2022/09/07 06:11:37;;;;;;;6.00;2.20;;;;;;;;;;5059497;28;20036;-77
2022/09/07 06:14:03;;;;;;;6.57;2.28;;;;;;;;;;5065006;28;20075;-75
2022/09/07 06:16:32;;;;;;;8.30;2.47;;;;;;;;;;5063127;28;20032;-77
2022/09/07 06:18:58;;;;;;;6.43;2.67;;;;;;;;;;5066941;28;20067;-76
2022/09/07 06:21:24;;;;;;;5.97;2.10;;;;;;;;;;5061688;28;20117;-76
2022/09/07 06:23:52;;;;;;;8.70;2.83;;;;;;;;;;5058976;28;20051;-77
2022/09/07 06:26:18;;;;;;;5.35;3.15;;;;;;;;;;5070525;28;20115;-76
2022/09/07 06:28:46;;;;;;;9.35;2.83;;;;;;;;;;5062743;28;20055;-76
2022/09/07 06:31:17;;;;;;;6.57;2.50;;;;;;;;;;5068022;28;20028;-75
2022/09/07 06:33:43;;;;;;;6.63;2.97;;;;;;;;;;5069325;28;20033;-77
2022/09/07 06:36:17;;;;;;;5.90;2.38;;;;;;;;;;5066676;28;20033;-76
2022/09/07 06:38:44;;;;;;;6.35;2.55;;;;;;;;;;5060970;28;20029;-77
2022/09/07 06:41:10;;;;;;;4.43;2.47;;;;;;;;;;5065473;28;20516;-76
2022/09/07 06:43:36;;;;;;;8.45;4.38;;;;;;;;;;5064316;28;20021;-77
2022/09/07 06:46:02;;;;;;;6.70;2.80;;;;;;;;;;5069171;28;20021;-76
2022/09/07 06:48:28;;;;;;;6.03;2.30;;;;;;;;;;5065186;28;20043;-76
2022/09/07 06:50:58;;;;;;;7.30;2.58;;;;;;;;;;5065524;28;20373;-76
2022/09/07 06:53:25;;;;;;;5.05;2.33;;;;;;;;;;5065681;28;20024;-76
2022/09/07 06:55:52;;;;;;;7.93;2.30;;;;;;;;;;5068822;28;20573;-77
2022/09/07 06:58:18;;;;;;;5.07;2.53;;;;;;;;;;5067230;28;20048;-77
2022/09/07 07:00:45;;;;;;;11.40;2.85;;;;;;;;;;5069886;28;20484;-75
2022/09/07 07:03:11;;;;;;;4.68;2.40;;;;;;;;;;5067985;28;20091;-78
2022/09/07 07:05:37;;;;;;;7.07;2.70;;;;;;;;;;5068242;28;20033;-76
2022/09/07 07:08:03;;;;;;;7.07;3.65;;;;;;;;;;5061236;28;20032;-76
2022/09/07 07:10:29;;;;;;;8.60;2.45;;;;;;;;;;5067595;28;20039;-76
2022/09/07 07:12:55;;;;;;;5.57;2.40;;;;;;;;;;5068118;28;20050;-76
2022/09/07 07:15:22;;;;;;;5.50;2.40;;;;;;;;;;5065102;28;20044;-75
2022/09/07 07:17:48;;;;;;;7.03;2.45;;;;;;;;;;5065395;28;20041;-76
2022/09/07 07:20:14;;;;;;;7.95;2.35;;;;;;;;;;5067939;28;20078;-76
2022/09/07 07:22:40;;;;;;;7.43;2.65;;;;;;;;;;5067528;28;20489;-78
2022/09/07 07:25:07;;;;;;;6.50;2.40;;;;;;;;;;5069119;28;20020;-76
2022/09/07 07:27:33;;;;;;;5.80;2.80;;;;;;;;;;5069607;28;20020;-75
2022/09/07 07:29:59;;;;;;;5.13;2.10;;;;;;;;;;5065971;28;20492;-78
2022/09/07 07:32:25;;;;;;;4.72;2.33;;;;;;;;;;5069532;28;20111;-75
2022/09/07 07:34:51;;;;;;;10.82;2.85;;;;;;;;;;5062625;28;20077;-75
2022/09/07 07:37:17;;;;;;;6.07;2.13;;;;;;;;;;5068779;28;20040;-77
2022/09/07 07:39:44;;;;;;;7.03;2.25;;;;;;;;;;5063452;28;20381;-76
2022/09/07 07:42:11;;;;;;;10.98;2.72;;;;;;;;;;5070396;28;20028;-75
2022/09/07 07:44:37;;;;;;;6.90;3.42;;;;;;;;;;5064817;28;20140;-77
2022/09/07 07:47:03;;;;;;;9.10;2.83;;;;;;;;;;5068305;28;20029;-77
2022/09/07 07:49:29;;;;;;;10.93;2.65;;;;;;;;;;5064664;28;20025;-74
2022/09/07 07:51:56;;;;;;;9.60;3.30;;;;;;;;;;5067719;28;20389;-75
2022/09/07 07:54:22;;;;;;;6.60;2.40;;;;;;;;;;5066210;28;20476;-75
2022/09/07 07:56:48;;;;;;;7.78;2.60;;;;;;;;;;5066882;28;20056;-77
2022/09/07 07:59:14;;;;;;;7.78;2.60;;;;;;;;;;5063253;28;20025;-75
2022/09/07 08:01:40;;;;;;;6.40;2.30;;;;;;;;;;5068684;28;20124;-77
2022/09/07 08:04:06;;;;;;;8.32;2.35;;;;;;;;;;5074245;28;20020;-77
2022/09/07 08:06:32;;;;;;;6.53;2.42;;;;;;;;;;5077722;28;20024;-77
2022/09/07 08:08:59;;;;;;;8.63;2.78;;;;;;;;;;5077754;28;20024;-76
2022/09/07 08:11:25;;;;;;;6.68;2.58;;;;;;;;;;5077272;28;20028;-76
2022/09/07 08:13:51;;;;;;;6.03;2.40;;;;;;;;;;5077837;28;20807;-76
2022/09/07 08:16:18;;;;;;;4.68;2.58;;;;;;;;;;5071771;28;20484;-76
2022/09/07 08:18:44;;;;;;;6.63;2.10;;;;;;;;;;5076011;28;20032;-77
2022/09/07 08:21:11;;;;;;;5.18;2.28;;;;;;;;;;5076639;28;20475;-77
2022/09/07 08:23:38;;;;;;;5.38;2.20;;;;;;;;;;5070636;28;20085;-77
2022/09/07 08:26:04;;;;;;;6.68;2.42;;;;;;;;;;5078311;28;20024;-77
2022/09/07 08:28:31;;;;;;;10.35;3.65;;;;;;;;;;5078410;28;20493;-76
2022/09/07 08:30:58;;;;;;;8.60;2.50;;;;;;;;;;5077199;28;20028;-77
2022/09/07 08:33:24;;;;;;;8.05;2.28;;;;;;;;;;5079207;28;20799;-75
2022/09/07 08:36:01;;;;;;;6.28;2.30;;;;;;;;;;5075253;28;20032;-76
2022/09/07 08:38:31;;;;;;;7.45;2.75;;;;;;;;;;5072484;28;20115;-75
2022/09/07 08:40:58;;;;;;;5.50;2.17;;;;;;;;;;5073440;28;20024;-78
2022/09/07 08:43:43;;;;;;;7.55;2.60;;;;;;;;;;5075127;28;20072;-79
2022/09/07 08:46:19;;;;;;;7.63;2.45;;;;;;;;;;5088837;28;20028;-77
2022/09/07 08:48:45;;;;;;;10.15;2.78;;;;;;;;;;5076157;28;20024;-76
2022/09/07 08:51:17;;;;;;;8.38;2.60;;;;;;;;;;5073641;28;20748;-76
2022/09/07 08:53:45;;;;;;;6.03;2.33;;;;;;;;;;5077801;28;20109;-76
2022/09/07 08:56:18;;;;;;;8.82;3.20;;;;;;;;;;5074945;28;20105;-76
2022/09/07 08:58:49;;;;;;;4.95;2.30;;;;;;;;;;5074763;28;20139;-76
2022/09/07 09:01:16;;;;;;;6.85;2.65;;;;;;;;;;5073551;28;20084;-77
2022/09/07 09:03:42;;;;;;;5.32;2.20;;;;;;;;;;5074403;28;20155;-78
2022/09/07 09:06:13;;;;;;;10.63;3.30;;;;;;;;;;5074284;28;20029;-77
2022/09/07 09:08:47;;;;;;;7.82;2.10;;;;;;;;;;5068665;28;20046;-77
2022/09/07 09:11:15;;;;;;;7.80;2.50;;;;;;;;;;5072471;28;20238;-77
2022/09/07 09:13:42;;;;;;;6.40;2.20;;;;;;;;;;5074647;28;20031;-76
2022/09/07 09:16:15;;;;;;;7.88;2.65;;;;;;;;;;5062818;28;20500;-77
2022/09/07 09:18:41;;;;;;;8.68;2.10;;;;;;;;;;5075628;28;20503;-78
2022/09/07 09:21:17;;;;;;;4.07;2.08;;;;;;;;;;5073428;28;20030;-77
2022/09/07 09:23:45;;;;;;;4.78;2.25;;;;;;;;;;5072447;28;20485;-77
2022/09/07 09:26:16;;;;;;;7.75;2.30;;;;;;;;;;5080296;28;20017;-77
2022/09/07 09:28:42;;;;;;;6.75;2.17;;;;;;;;;;5070979;28;20024;-78
2022/09/07 09:31:22;;;;;;;5.65;2.42;;;;;;;;;;5068290;28;20032;-77
2022/09/07 09:34:09;;;;;;;8.48;2.00;;;;;;;;;;5075476;28;21173;-76
2022/09/07 09:36:39;;;;;;;4.93;2.40;;;;;;;;;;5074022;28;20032;-77
2022/09/07 09:39:23;;;;;;;8.98;2.28;;;;;;;;;;5071799;28;20739;-75
2022/09/07 09:41:50;;;;;;;5.40;2.78;;;;;;;;;;5071247;28;20063;-76
2022/09/07 09:44:17;;;;;;;6.10;1.92;;;;;;;;;;5068944;28;20041;-76
2022/09/07 09:46:48;;;;;;;6.35;1.98;;;;;;;;;;5070678;28;20063;-77
2022/09/07 09:49:19;;;;;;;5.82;2.33;;;;;;;;;;5075605;28;20836;-75
2022/09/07 09:51:48;;;;;;;5.53;2.28;;;;;;;;;;5076882;28;20432;-77
2022/09/07 09:54:14;;;;;;;7.85;3.45;;;;;;;;;;5074867;28;20020;-75
2022/09/07 09:56:42;;;;;;;4.10;1.80;;;;;;;;;;5067267;28;20040;-77
2022/09/07 09:59:35;;;;;;;2.85;2.10;;;;;;;;;;5072181;28;20033;-75
2022/09/07 10:02:09;;;;;;;7.15;2.15;;;;;;;;;;5074000;28;20068;-75
2022/09/07 10:04:35;;;;;;;5.47;2.35;;;;;;;;;;5075021;28;20032;-74
2022/09/07 10:07:21;;;;;;;6.50;2.05;;;;;;;;;;5077083;28;20131;-75
2022/09/07 10:09:51;;;;;;;6.18;1.92;;;;;;;;;;5090485;28;20564;-75
2022/09/07 10:12:24;;;;;;;5.97;2.53;;;;;;;;;;5074701;28;20024;-75
2022/09/07 10:14:50;;;;;;;6.60;2.33;;;;;;;;;;5077315;28;20060;-75
2022/09/07 10:17:30;;;;;;;4.28;2.58;;;;;;;;;;5076763;28;20046;-76
2022/09/07 10:20:00;;;;;;;5.03;2.25;;;;;;;;;;5078284;28;20111;-75
2022/09/07 10:22:30;;;;;;;7.72;2.38;;;;;;;;;;5076264;28;20021;-74
2022/09/07 10:24:57;;;;;;;7.35;2.33;;;;;;;;;;5079593;28;20028;-74
2022/09/07 10:27:26;;;;;;;5.45;2.03;;;;;;;;;;5076744;28;20048;-76
2022/09/07 10:29:53;;;;;;;4.57;2.70;;;;;;;;;;5080151;28;20182;-74
2022/09/07 10:32:38;;;;;;;7.07;2.20;;;;;;;;;;5073567;28;20783;-78
2022/09/07 10:35:24;;;;;;;7.28;2.05;;;;;;;;;;5076973;28;20244;-75
2022/09/07 10:38:23;;;;;;;4.45;1.90;;;;;;;;;;5075724;28;20028;-75
2022/09/07 10:41:02;;;;;;;6.88;2.55;;;;;;;;;;5060385;28;20050;-74
2022/09/07 10:43:34;;;;;;;6.28;2.65;;;;;;;;;;5073454;28;20804;-75
2022/09/07 10:46:19;;;;;;;5.40;2.05;;;;;;;;;;5073718;28;20027;-87
2022/09/07 10:49:11;;;;;;;5.63;2.15;;;;;;;;;;5073460;28;20466;-74
2022/09/07 10:51:56;;;;;;;6.03;2.45;;;;;;;;;;5072501;28;20123;-74
2022/09/07 10:54:37;;;;;;;6.45;2.53;;;;;;;;;;5073670;28;20064;-75
2022/09/07 10:57:26;;;;;;;6.65;2.90;;;;;;;;;;5077099;28;20087;-76
2022/09/07 11:00:11;;;;;;;9.05;2.33;;;;;;;;;;5075858;28;20033;-74
2022/09/07 11:02:40;;;;;;;5.63;2.13;;;;;;;;;;5073348;28;20035;-74
2022/09/07 11:05:09;;;;;;;8.55;2.72;;;;;;;;;;5074459;28;21508;-74
2022/09/07 11:07:55;;;;;;;6.85;1.90;;;;;;;;;;5078803;28;20048;-74
2022/09/07 11:10:32;;;;;;;7.47;2.63;;;;;;;;;;5075051;28;20032;-74
2022/09/07 11:13:00;;;;;;;4.75;2.33;;;;;;;;;;5077324;28;20020;-75
2022/09/07 11:15:31;;;;;;;7.90;2.10;;;;;;;;;;5080342;28;20035;-74
2022/09/07 11:18:05;;;;;;;5.93;2.60;;;;;;;;;;5078091;28;21939;-75
2022/09/07 11:20:34;;;;;;;7.45;2.30;;;;;;;;;;5077303;28;20020;-74
2022/09/07 11:23:00;;;;;;;5.68;2.00;;;;;;;;;;5077175;28;20024;-74
2022/09/07 11:25:30;;;;;;;4.72;2.13;;;;;;;;;;5078561;28;20039;-74
2022/09/07 11:27:59;;;;;;;4.30;2.00;;;;;;;;;;5084644;28;20095;-75
2022/09/07 11:30:27;;;;;;;7.97;2.78;;;;;;;;;;5078079;28;20041;-75
2022/09/07 11:33:02;;;;;;;5.82;1.90;;;;;;;;;;5081634;28;20020;-74
2022/09/07 11:35:28;;;;;;;;;;;;;;;;;;5078961;28;20357;-74
2022/09/07 11:38:00;;;;;;;7.30;2.30;;;;;;;;;;5079861;28;19938;-74
2022/09/07 11:40:39;;;;;;;8.57;3.15;;;;;;;;;;5077016;28;20400;-74
2022/09/07 11:43:14;;;;;;;9.98;3.83;;;;;;;;;;5079521;28;20054;-75
2022/09/07 11:45:43;;;;;;;3.42;1.98;;;;;;;;;;5078669;28;20024;-77
2022/09/07 11:48:14;;;;;;;4.72;2.10;;;;;;;;;;5080056;28;20031;-75
2022/09/07 11:50:45;;;;;;;9.32;2.17;;;;;;;;;;5077129;28;20024;-80
2022/09/07 11:53:17;;;;;;;5.05;2.40;;;;;;;;;;5078211;28;20016;-75
2022/09/07 11:55:45;;;;;;;11.45;2.30;;;;;;;;;;5077464;28;20284;-76
2022/09/07 11:58:25;;;;;;;2.83;1.73;;;;;;;;;;5080099;28;20119;-73
2022/09/07 12:01:06;;;;;;;4.95;2.03;;;;;;;;;;5079668;28;20024;-74
2022/09/07 12:03:53;;;;;;;8.00;2.47;;;;;;;;;;5080601;28;20023;-74
2022/09/07 12:06:26;;;;;;;5.13;1.60;;;;;;;;;;5067479;28;20037;-75
2022/09/07 12:08:52;;;;;;;3.47;2.15;;;;;;;;;;5082634;28;20170;-75
2022/09/07 12:11:30;;;;;;;5.47;2.00;;;;;;;;;;5079411;28;20028;-75
2022/09/07 12:13:59;;;;;;;4.25;2.30;;;;;;;;;;5078784;28;20024;-76
2022/09/07 12:16:29;;;;;;;2.75;1.80;;;;;;;;;;5094184;28;20037;-75
2022/09/07 12:19:13;;;;;;;3.03;1.95;;;;;;;;;;5077723;28;20181;-75
2022/09/07 12:21:44;;;;;;;4.35;1.73;;;;;;;;;;5075281;28;20028;-78
2022/09/07 12:24:29;;;;;;;3.13;1.73;;;;;;;;;;5079541;28;20500;-75
2022/09/07 12:26:56;;;;;;;3.80;1.95;;;;;;;;;;5078704;28;20024;-75
2022/09/07 12:29:24;;;;;;;4.35;1.80;;;;;;;;;;5080643;28;20032;-78
2022/09/07 12:31:54;;;;;;;2.78;1.95;;;;;;;;;;5080720;28;20037;-75
2022/09/07 12:34:43;;;;;;;6.70;3.25;;;;;;;;;;5080299;28;20030;-77
2022/09/07 12:37:09;;;;;;;5.35;2.45;;;;;;;;;;5072305;28;20027;-78
2022/09/07 12:39:40;;;;;;;5.15;3.13;;;;;;;;;;5076518;28;20135;-78
2022/09/07 12:42:06;;;;;;;6.05;2.92;;;;;;;;;;5078895;28;20058;-78
2022/09/07 12:44:36;;;;;;;7.20;4.25;;;;;;;;;;5076394;28;20050;-76
2022/09/07 12:47:20;;;;;;;13.77;6.78;;;;;;;;;;5075898;28;20020;-75
2022/09/07 12:49:49;;;;;;;19.15;8.57;;;;;;;;;;5075507;28;20036;-75
2022/09/07 12:52:34;;;;;;;7.68;3.15;;;;;;;;;;5077755;28;20036;-76
2022/09/07 12:55:08;;;;;;;9.00;3.72;;;;;;;;;;5076681;28;20035;-74
2022/09/07 12:57:37;;;;;;;10.18;3.17;;;;;;;;;;5078688;28;20442;-75
2022/09/07 13:00:15;;;;;;;7.05;2.72;;;;;;;;;;5095832;28;20043;-77
2022/09/07 13:02:42;;;;;;;12.38;3.00;;;;;;;;;;5077994;28;20040;-75
2022/09/07 13:05:17;;;;;;;8.30;2.67;;;;;;;;;;5078678;28;20538;-75
2022/09/07 13:07:46;;;;;;;6.78;2.72;;;;;;;;;;5077332;28;20016;-75
2022/09/07 13:10:31;;;;;;;9.32;2.63;;;;;;;;;;5077224;28;20032;-76
2022/09/07 13:13:02;;;;;;;5.82;2.63;;;;;;;;;;5077725;28;20028;-75
2022/09/07 13:15:33;;;;;;;6.78;2.63;;;;;;;;;;5074697;28;20127;-74
2022/09/07 13:17:59;;;;;;;4.60;2.10;;;;;;;;;;5078849;28;20468;-75
2022/09/07 13:20:29;;;;;;;8.30;3.00;;;;;;;;;;5073759;28;20020;-76
2022/09/07 13:22:56;;;;;;;5.30;2.50;;;;;;;;;;5077767;28;20063;-76
2022/09/07 13:25:25;;;;;;;9.25;2.92;;;;;;;;;;5077230;28;20154;-75
2022/09/07 13:28:00;;;;;;;9.20;3.10;;;;;;;;;;5076989;28;20032;-79
2022/09/07 13:30:45;;;;;;;11.13;2.78;;;;;;;;;;5075316;28;20086;-79
2022/09/07 13:33:29;;;;;;;8.88;2.30;;;;;;;;;;5079246;28;20024;-78
2022/09/07 13:36:00;;;;;;;4.68;2.35;;;;;;;;;;5082868;28;20032;-75
2022/09/07 13:38:27;;;;;;;8.02;2.60;;;;;;;;;;5076153;28;20028;-76
2022/09/07 13:40:55;;;;;;;8.15;2.15;;;;;;;;;;5079572;28;20077;-75
2022/09/07 13:43:23;;;;;;;6.00;2.55;;;;;;;;;;5079223;28;20760;-75
2022/09/07 13:45:55;;;;;;;8.50;3.17;;;;;;;;;;5080055;28;20024;-76
2022/09/07 13:48:25;;;;;;;5.78;2.75;;;;;;;;;;5072866;28;20024;-76
2022/09/07 13:50:52;;;;;;;7.05;2.25;;;;;;;;;;5074670;28;20036;-77
2022/09/07 13:53:20;;;;;;;7.45;2.80;;;;;;;;;;5078124;28;20196;-77
2022/09/07 13:55:53;;;;;;;9.18;2.67;;;;;;;;;;5079482;28;20028;-76
2022/09/07 13:58:33;;;;;;;4.95;2.30;;;;;;;;;;5078907;28;20081;-75
2022/09/07 14:01:01;;;;;;;6.70;2.47;;;;;;;;;;5076021;28;20028;-78
2022/09/07 14:03:30;;;;;;;6.40;3.10;;;;;;;;;;5076384;28;20078;-78
2022/09/07 14:06:15;;;;;;;6.13;2.83;;;;;;;;;;5077727;28;20027;-75
2022/09/07 14:08:46;;;;;;;4.32;2.10;;;;;;;;;;5077026;28;20477;-78
2022/09/07 14:11:18;;;;;;;4.38;1.80;;;;;;;;;;5073234;28;20020;-77
2022/09/07 14:13:44;;;;;;;4.80;2.08;;;;;;;;;;5078178;28;20559;-77
2022/09/07 14:16:10;;;;;;;7.35;3.20;;;;;;;;;;5075520;28;20056;-76
2022/09/07 14:18:39;;;;;;;5.90;2.38;;;;;;;;;;5071308;28;20028;-76
2022/09/07 14:21:08;;;;;;;8.60;2.95;;;;;;;;;;5074959;28;20078;-76
2022/09/07 14:23:35;;;;;;;8.45;2.92;;;;;;;;;;5077386;28;20077;-74
2022/09/07 14:26:17;;;;;;;8.02;2.20;;;;;;;;;;5073835;28;20808;-75
2022/09/07 14:28:44;;;;;;;10.40;2.80;;;;;;;;;;5073644;28;20028;-74
2022/09/07 14:31:12;;;;;;;9.65;2.97;;;;;;;;;;5071738;28;20449;-75
2022/09/07 14:33:40;;;;;;;6.40;2.42;;;;;;;;;;5078181;28;20043;-76
2022/09/07 14:36:07;;;;;;;4.50;2.38;;;;;;;;;;5077031;28;20031;-80
2022/09/07 14:38:34;;;;;;;7.07;2.25;;;;;;;;;;5077504;28;20032;-79
2022/09/07 14:41:01;;;;;;;5.80;2.53;;;;;;;;;;5075139;28;20028;-79
2022/09/07 14:43:38;;;;;;;3.95;2.58;;;;;;;;;;5077999;28;20046;-78
2022/09/07 14:46:27;;;;;;;5.53;2.00;;;;;;;;;;5073518;28;20509;-77
2022/09/07 14:48:57;;;;;;;4.15;2.20;;;;;;;;;;5076506;28;20067;-77
2022/09/07 14:51:25;;;;;;;5.72;2.10;;;;;;;;;;5077066;28;20038;-78
2022/09/07 14:53:53;;;;;;;4.10;2.35;;;;;;;;;;5079560;28;20472;-77
2022/09/07 14:56:20;;;;;;;9.32;3.13;;;;;;;;;;5077213;28;20111;-77